sensor_id;sensor_type;location;lat;lon;timestamp;pressure;altitude;pressure_sealevel;temperature;humidity
13312;BME280;34033;48.672;9.376;2023-01-05T00:01:08;99003.97;;;10.91;87.02
13312;BME280;34033;48.672;9.376;2023-01-05T00:03:35;98991.56;;;10.92;86.90
13312;BME280;34033;48.672;9.376;2023-01-05T00:06:05;98990.78;;;10.91;86.69
13312;BME280;34033;48.672;9.376;2023-01-05T00:08:31;98989.22;;;10.94;86.53
13312;BME280;34033;48.672;9.376;2023-01-05T00:10:56;98983.63;;;10.94;86.36
13312;BME280;34033;48.672;9.376;2023-01-05T00:13:40;98989.22;;;10.94;85.79
13312;BME280;34033;48.672;9.376;2023-01-05T00:16:24;98980.81;;;10.94;86.00
13312;BME280;34033;48.672;9.376;2023-01-05T00:19:11;98983.66;;;10.97;85.09
13312;BME280;34033;48.672;9.376;2023-01-05T00:21:55;98969.19;;;10.92;85.64
13312;BME280;34033;48.672;9.376;2023-01-05T00:24:40;98955.88;;;10.81;86.04
13312;BME280;34033;48.672;9.376;2023-01-05T00:27:05;98950.38;;;10.88;86.32
13312;BME280;34033;48.672;9.376;2023-01-05T00:29:30;98953.63;;;10.91;85.79
13312;BME280;34033;48.672;9.376;2023-01-05T00:31:55;98952.84;;;10.94;85.61
13312;BME280;34033;48.672;9.376;2023-01-05T00:34:21;98950.84;;;10.94;85.37
13312;BME280;34033;48.672;9.376;2023-01-05T00:36:46;98949.78;;;11.02;85.09
13312;BME280;34033;48.672;9.376;2023-01-05T00:39:11;98946.53;;;11.00;84.62
13312;BME280;34033;48.672;9.376;2023-01-05T00:41:37;98951.34;;;11.00;84.67
13312;BME280;34033;48.672;9.376;2023-01-05T00:44:02;98953.34;;;11.03;84.75
13312;BME280;34033;48.672;9.376;2023-01-05T00:46:27;98957.75;;;11.04;84.52
13312;BME280;34033;48.672;9.376;2023-01-05T00:48:53;98955.41;;;11.06;84.54
13312;BME280;34033;48.672;9.376;2023-01-05T00:51:18;98957.06;;;11.10;84.33
13312;BME280;34033;48.672;9.376;2023-01-05T00:53:43;98948.69;;;11.14;83.59
13312;BME280;34033;48.672;9.376;2023-01-05T00:56:09;98955.91;;;11.15;83.66
13312;BME280;34033;48.672;9.376;2023-01-05T00:58:34;98960.75;;;11.18;83.63
13312;BME280;34033;48.672;9.376;2023-01-05T01:00:59;98953.19;;;11.22;83.74
13312;BME280;34033;48.672;9.376;2023-01-05T01:03:25;98964.81;;;11.24;83.00
13312;BME280;34033;48.672;9.376;2023-01-05T01:05:57;98966.09;;;11.30;83.42
13312;BME280;34033;48.672;9.376;2023-01-05T01:08:23;98976.09;;;11.31;83.24
13312;BME280;34033;48.672;9.376;2023-01-05T01:10:48;98976.94;;;11.35;83.00
13312;BME280;34033;48.672;9.376;2023-01-05T01:13:13;98976.94;;;11.35;83.58
13312;BME280;34033;48.672;9.376;2023-01-05T01:15:39;98976.16;;;11.38;82.78
13312;BME280;34033;48.672;9.376;2023-01-05T01:18:04;98974.16;;;11.35;83.44
13312;BME280;34033;48.672;9.376;2023-01-05T01:20:29;98973.72;;;11.33;83.85
13312;BME280;34033;48.672;9.376;2023-01-05T01:22:55;98977.75;;;11.36;84.08
13312;BME280;34033;48.672;9.376;2023-01-05T01:25:21;98972.16;;;11.36;83.82
13312;BME280;34033;48.672;9.376;2023-01-05T01:27:46;98972.91;;;11.33;84.32
13312;BME280;34033;48.672;9.376;2023-01-05T01:30:11;98970.44;;;11.27;84.85
13312;BME280;34033;48.672;9.376;2023-01-05T01:32:37;98983.66;;;11.30;84.95
13312;BME280;34033;48.672;9.376;2023-01-05T01:35:02;98978.88;;;11.31;85.01
13312;BME280;34033;48.672;9.376;2023-01-05T01:37:28;98971.72;;;11.34;85.14
13312;BME280;34033;48.672;9.376;2023-01-05T01:39:53;98982.59;;;11.42;84.97
13312;BME280;34033;48.672;9.376;2023-01-05T01:42:20;98977.78;;;11.39;85.14
13312;BME280;34033;48.672;9.376;2023-01-05T01:44:54;98959.75;;;11.37;85.29
13312;BME280;34033;48.672;9.376;2023-01-05T01:47:34;98966.63;;;11.43;85.27
13312;BME280;34033;48.672;9.376;2023-01-05T01:50:05;98968.13;;;11.33;85.58
13312;BME280;34033;48.672;9.376;2023-01-05T01:52:33;98958.53;;;11.34;85.95
13312;BME280;34033;48.672;9.376;2023-01-05T01:55:01;98952.94;;;11.34;85.62
13312;BME280;34033;48.672;9.376;2023-01-05T01:57:28;98945.34;;;11.35;86.17
13312;BME280;34033;48.672;9.376;2023-01-05T01:59:54;98949.78;;;11.39;85.86
13312;BME280;34033;48.672;9.376;2023-01-05T02:02:22;98950.53;;;11.36;86.51
13312;BME280;34033;48.672;9.376;2023-01-05T02:04:48;98942.50;;;11.31;86.55
13312;BME280;34033;48.672;9.376;2023-01-05T02:07:14;98936.50;;;11.29;86.61
13312;BME280;34033;48.672;9.376;2023-01-05T02:09:40;98930.47;;;11.27;86.62
13312;BME280;34033;48.672;9.376;2023-01-05T02:12:34;98940.97;;;11.37;86.37
13312;BME280;34033;48.672;9.376;2023-01-05T02:15:09;98938.56;;;11.36;86.76
13312;BME280;34033;48.672;9.376;2023-01-05T02:36:49;98933.75;;;11.36;87.71
13312;BME280;34033;48.672;9.376;2023-01-05T02:39:29;98931.75;;;11.37;87.34
13312;BME280;34033;48.672;9.376;2023-01-05T02:44:33;98935.72;;;11.32;88.14
13312;BME280;34033;48.672;9.376;2023-01-05T02:49:50;98917.41;;;11.42;87.57
13312;BME280;34033;48.672;9.376;2023-01-05T02:52:18;98908.56;;;11.36;87.92
13312;BME280;34033;48.672;9.376;2023-01-05T02:54:57;98904.91;;;11.32;87.79
13312;BME280;34033;48.672;9.376;2023-01-05T02:57:38;98913.31;;;11.32;88.54
13312;BME280;34033;48.672;9.376;2023-01-05T03:00:41;98910.16;;;11.37;87.92
13312;BME280;34033;48.672;9.376;2023-01-05T03:03:21;98913.81;;;11.41;87.79
13312;BME280;34033;48.672;9.376;2023-01-05T03:05:53;98917.75;;;11.37;88.37
13312;BME280;34033;48.672;9.376;2023-01-05T03:08:22;98921.03;;;11.42;87.80
13312;BME280;34033;48.672;9.376;2023-01-05T03:13:43;98911.44;;;11.43;88.27
13312;BME280;34033;48.672;9.376;2023-01-05T03:16:15;98925.78;;;11.38;88.84
13312;BME280;34033;48.672;9.376;2023-01-05T03:18:44;98915.41;;;11.42;88.19
13312;BME280;34033;48.672;9.376;2023-01-05T03:21:29;98925.00;;;11.41;88.06
13312;BME280;34033;48.672;9.376;2023-01-05T03:23:56;98917.84;;;11.44;87.78
13312;BME280;34033;48.672;9.376;2023-01-05T03:26:40;98917.03;;;11.43;88.38
13312;BME280;34033;48.672;9.376;2023-01-05T03:29:26;98909.06;;;11.45;87.93
13312;BME280;34033;48.672;9.376;2023-01-05T03:32:20;98907.88;;;11.46;88.43
13312;BME280;34033;48.672;9.376;2023-01-05T03:35:10;98903.84;;;11.44;87.87
13312;BME280;34033;48.672;9.376;2023-01-05T03:38:01;98915.47;;;11.46;88.17
13312;BME280;34033;48.672;9.376;2023-01-05T03:40:30;98931.81;;;11.40;88.63
13312;BME280;34033;48.672;9.376;2023-01-05T03:42:56;98915.03;;;11.44;88.20
13312;BME280;34033;48.672;9.376;2023-01-05T03:45:23;98917.84;;;11.44;88.17
13312;BME280;34033;48.672;9.376;2023-01-05T03:47:50;98914.66;;;11.45;88.42
13312;BME280;34033;48.672;9.376;2023-01-05T03:50:16;98909.09;;;11.49;87.65
13312;BME280;34033;48.672;9.376;2023-01-05T03:52:41;98908.28;;;11.48;88.25
13312;BME280;34033;48.672;9.376;2023-01-05T03:55:08;98907.06;;;11.46;88.12
13312;BME280;34033;48.672;9.376;2023-01-05T03:57:34;98904.69;;;11.48;87.72
13312;BME280;34033;48.672;9.376;2023-01-05T03:59:59;98908.63;;;11.43;87.75
13312;BME280;34033;48.672;9.376;2023-01-05T04:02:24;98905.09;;;11.50;87.29
13312;BME280;34033;48.672;9.376;2023-01-05T04:04:49;98899.13;;;11.51;87.64
13312;BME280;34033;48.672;9.376;2023-01-05T04:07:15;98911.44;;;11.43;87.68
13312;BME280;34033;48.672;9.376;2023-01-05T04:09:40;98896.22;;;11.41;88.10
13312;BME280;34033;48.672;9.376;2023-01-05T04:12:05;98899.88;;;11.48;87.84
13312;BME280;34033;48.672;9.376;2023-01-05T04:14:31;98895.53;;;11.51;87.31
13312;BME280;34033;48.672;9.376;2023-01-05T04:16:56;98895.53;;;11.54;87.31
13312;BME280;34033;48.672;9.376;2023-01-05T04:19:21;98903.91;;;11.51;86.69
13312;BME280;34033;48.672;9.376;2023-01-05T04:21:47;98889.13;;;11.50;86.89
13312;BME280;34033;48.672;9.376;2023-01-05T04:24:12;98897.47;;;11.47;87.23
13312;BME280;34033;48.672;9.376;2023-01-05T04:26:38;98900.69;;;11.49;86.92
13312;BME280;34033;48.672;9.376;2023-01-05T04:29:04;98906.31;;;11.52;86.60
13312;BME280;34033;48.672;9.376;2023-01-05T04:31:30;98897.91;;;11.52;87.10
13312;BME280;34033;48.672;9.376;2023-01-05T04:33:55;98881.09;;;11.49;87.01
13312;BME280;34033;48.672;9.376;2023-01-05T04:36:21;98894.75;;;11.54;87.11
13312;BME280;34033;48.672;9.376;2023-01-05T04:38:46;98886.78;;;11.59;87.07
13312;BME280;34033;48.672;9.376;2023-01-05T04:41:11;98881.91;;;11.53;86.47
13312;BME280;34033;48.672;9.376;2023-01-05T04:43:36;98889.13;;;11.50;87.07
13312;BME280;34033;48.672;9.376;2023-01-05T04:46:02;98892.28;;;11.49;87.06
13312;BME280;34033;48.672;9.376;2023-01-05T04:48:27;98892.31;;;11.52;86.85
13312;BME280;34033;48.672;9.376;2023-01-05T04:50:54;98897.91;;;11.52;87.05
13312;BME280;34033;48.672;9.376;2023-01-05T04:53:19;98895.09;;;11.49;87.44
13312;BME280;34033;48.672;9.376;2023-01-05T04:55:45;98901.16;;;11.54;86.82
13312;BME280;34033;48.672;9.376;2023-01-05T04:58:10;98913.50;;;11.50;87.15
13312;BME280;34033;48.672;9.376;2023-01-05T05:00:35;98915.97;;;11.58;86.90
13312;BME280;34033;48.672;9.376;2023-01-05T05:03:01;98910.72;;;11.53;86.79
13312;BME280;34033;48.672;9.376;2023-01-05T05:05:27;98916.41;;;11.60;86.71
13312;BME280;34033;48.672;9.376;2023-01-05T05:07:52;98907.56;;;11.58;86.63
13312;BME280;34033;48.672;9.376;2023-01-05T05:10:17;98911.59;;;11.57;86.94
13312;BME280;34033;48.672;9.376;2023-01-05T05:12:43;98914.78;;;11.59;86.79
13312;BME280;34033;48.672;9.376;2023-01-05T05:15:09;98910.78;;;11.57;86.49
13312;BME280;34033;48.672;9.376;2023-01-05T05:17:34;98917.56;;;11.56;86.41
13312;BME280;34033;48.672;9.376;2023-01-05T05:20:00;98913.13;;;11.51;87.12
13312;BME280;34033;48.672;9.376;2023-01-05T05:22:25;98925.16;;;11.55;86.45
13312;BME280;34033;48.672;9.376;2023-01-05T05:24:52;98920.38;;;11.56;86.39
13312;BME280;34033;48.672;9.376;2023-01-05T05:27:17;98925.50;;;11.50;87.24
13312;BME280;34033;48.672;9.376;2023-01-05T05:29:42;98922.72;;;11.50;86.92
13312;BME280;34033;48.672;9.376;2023-01-05T05:32:08;98929.53;;;11.53;87.02
13312;BME280;34033;48.672;9.376;2023-01-05T05:34:33;98937.53;;;11.54;87.70
13312;BME280;34033;48.672;9.376;2023-01-05T05:36:59;98933.19;;;11.57;88.47
13312;BME280;34033;48.672;9.376;2023-01-05T05:39:24;98938.34;;;11.55;88.93
13312;BME280;34033;48.672;9.376;2023-01-05T05:41:49;98947.47;;;11.48;88.95
13312;BME280;34033;48.672;9.376;2023-01-05T05:44:14;98941.13;;;11.51;89.23
13312;BME280;34033;48.672;9.376;2023-01-05T05:46:40;98943.88;;;11.48;89.31
13312;BME280;34033;48.672;9.376;2023-01-05T05:49:05;98944.69;;;11.48;89.90
13312;BME280;34033;48.672;9.376;2023-01-05T05:51:33;98955.50;;;11.50;89.52
13312;BME280;34033;48.672;9.376;2023-01-05T05:53:58;98966.22;;;11.41;90.64
13312;BME280;34033;48.672;9.376;2023-01-05T05:56:23;98964.28;;;11.48;91.94
13312;BME280;34033;48.672;9.376;2023-01-05T05:58:49;98956.91;;;11.33;94.15
13312;BME280;34033;48.672;9.376;2023-01-05T06:01:14;98976.41;;;11.26;95.62
13312;BME280;34033;48.672;9.376;2023-01-05T06:03:39;98970.34;;;11.17;97.00
13312;BME280;34033;48.672;9.376;2023-01-05T06:06:05;98976.03;;;11.24;97.51
13312;BME280;34033;48.672;9.376;2023-01-05T06:08:30;98974.34;;;11.19;98.08
13312;BME280;34033;48.672;9.376;2023-01-05T06:10:56;98987.47;;;11.12;98.66
13312;BME280;34033;48.672;9.376;2023-01-05T06:13:22;98986.63;;;11.08;98.07
13312;BME280;34033;48.672;9.376;2023-01-05T06:15:47;98989.81;;;11.10;98.02
13312;BME280;34033;48.672;9.376;2023-01-05T06:18:13;98991.34;;;11.04;98.26
13312;BME280;34033;48.672;9.376;2023-01-05T06:20:39;98996.56;;;11.05;99.24
13312;BME280;34033;48.672;9.376;2023-01-05T06:23:04;98996.66;;;11.12;98.42
13312;BME280;34033;48.672;9.376;2023-01-05T06:25:30;99006.34;;;11.18;98.66
13312;BME280;34033;48.672;9.376;2023-01-05T06:27:55;99004.75;;;11.21;98.23
13312;BME280;34033;48.672;9.376;2023-01-05T06:30:20;99012.81;;;11.26;97.71
13312;BME280;34033;48.672;9.376;2023-01-05T06:32:46;99011.72;;;11.34;97.54
13312;BME280;34033;48.672;9.376;2023-01-05T06:35:11;99018.50;;;11.33;97.62
13312;BME280;34033;48.672;9.376;2023-01-05T06:37:36;99025.38;;;11.39;97.15
13312;BME280;34033;48.672;9.376;2023-01-05T06:40:02;99023.78;;;11.42;96.90
13312;BME280;34033;48.672;9.376;2023-01-05T06:42:28;99027.59;;;11.60;97.91
13312;BME280;34033;48.672;9.376;2023-01-05T06:44:53;99036.47;;;11.65;96.17
13312;BME280;34033;48.672;9.376;2023-01-05T06:47:19;99027.97;;;11.58;95.83
13312;BME280;34033;48.672;9.376;2023-01-05T06:49:44;99048.28;;;11.48;96.55
13312;BME280;34033;48.672;9.376;2023-01-05T06:52:10;99058.53;;;11.37;98.53
13312;BME280;34033;48.672;9.376;2023-01-05T06:54:35;99062.84;;;11.31;99.96
13312;BME280;34033;48.672;9.376;2023-01-05T06:57:01;99049.97;;;11.23;100.00
13312;BME280;34033;48.672;9.376;2023-01-05T06:59:26;99065.81;;;11.12;100.00
13312;BME280;34033;48.672;9.376;2023-01-05T07:01:52;99071.41;;;11.12;100.00
13312;BME280;34033;48.672;9.376;2023-01-05T07:04:17;99072.47;;;11.30;100.00
13312;BME280;34033;48.672;9.376;2023-01-05T07:06:42;99070.75;;;11.22;100.00
13312;BME280;34033;48.672;9.376;2023-01-05T07:09:08;99072.13;;;11.35;100.00
13312;BME280;34033;48.672;9.376;2023-01-05T07:11:33;99078.84;;;11.30;100.00
13312;BME280;34033;48.672;9.376;2023-01-05T07:13:58;99077.78;;;11.42;100.00
13312;BME280;34033;48.672;9.376;2023-01-05T07:16:24;99081.88;;;11.48;100.00
13312;BME280;34033;48.672;9.376;2023-01-05T07:18:49;99089.47;;;11.48;100.00
13312;BME280;34033;48.672;9.376;2023-01-05T07:21:14;99098.63;;;11.45;100.00
13312;BME280;34033;48.672;9.376;2023-01-05T07:23:40;99104.91;;;11.35;100.00
13312;BME280;34033;48.672;9.376;2023-01-05T07:26:07;99102.38;;;11.26;100.00
13312;BME280;34033;48.672;9.376;2023-01-05T07:28:34;99109.16;;;11.25;100.00
13312;BME280;34033;48.672;9.376;2023-01-05T07:31:00;99120.25;;;11.18;100.00
13312;BME280;34033;48.672;9.376;2023-01-05T07:33:25;99111.00;;;11.14;100.00
13312;BME280;34033;48.672;9.376;2023-01-05T07:35:50;99115.81;;;11.13;100.00
13312;BME280;34033;48.672;9.376;2023-01-05T07:38:16;99111.00;;;11.14;100.00
13312;BME280;34033;48.672;9.376;2023-01-05T07:40:41;99118.22;;;11.15;100.00
13312;BME280;34033;48.672;9.376;2023-01-05T07:43:07;99116.75;;;11.24;100.00
13312;BME280;34033;48.672;9.376;2023-01-05T07:45:32;99113.69;;;11.33;100.00
13312;BME280;34033;48.672;9.376;2023-01-05T07:47:57;99122.88;;;11.34;100.00
13312;BME280;34033;48.672;9.376;2023-01-05T07:50:24;99127.78;;;11.40;100.00
13312;BME280;34033;48.672;9.376;2023-01-05T07:52:49;99127.00;;;11.43;100.00
13312;BME280;34033;48.672;9.376;2023-01-05T07:55:15;99122.59;;;11.42;100.00
13312;BME280;34033;48.672;9.376;2023-01-05T07:57:40;99115.53;;;11.52;100.00
13312;BME280;34033;48.672;9.376;2023-01-05T08:00:06;99132.81;;;11.57;100.00
13312;BME280;34033;48.672;9.376;2023-01-05T08:02:32;99127.09;;;11.50;100.00
13312;BME280;34033;48.672;9.376;2023-01-05T08:04:57;99124.19;;;11.43;100.00
13312;BME280;34033;48.672;9.376;2023-01-05T08:07:23;99132.16;;;11.41;100.00
13312;BME280;34033;48.672;9.376;2023-01-05T08:09:48;99129.06;;;11.46;100.00
13312;BME280;34033;48.672;9.376;2023-01-05T08:12:32;99128.28;;;11.49;99.66
13312;BME280;34033;48.672;9.376;2023-01-05T08:15:17;99129.13;;;11.53;100.00
13312;BME280;34033;48.672;9.376;2023-01-05T08:17:43;99129.75;;;12.87;100.00
13312;BME280;34033;48.672;9.376;2023-01-05T08:20:08;99123.91;;;13.75;100.00
13312;BME280;34033;48.672;9.376;2023-01-05T08:22:34;99130.56;;;14.43;91.37
13312;BME280;34033;48.672;9.376;2023-01-05T08:25:00;99138.53;;;14.31;81.62
13312;BME280;34033;48.672;9.376;2023-01-05T08:27:25;99140.03;;;13.96;84.58
13312;BME280;34033;48.672;9.376;2023-01-05T08:29:51;99152.03;;;13.86;84.05
13312;BME280;34033;48.672;9.376;2023-01-05T08:32:16;99150.00;;;13.72;84.56
13312;BME280;34033;48.672;9.376;2023-01-05T08:34:41;99152.69;;;13.55;84.79
13312;BME280;34033;48.672;9.376;2023-01-05T08:37:06;99150.41;;;13.78;87.15
13312;BME280;34033;48.672;9.376;2023-01-05T08:39:32;99149.94;;;13.65;84.33
13312;BME280;34033;48.672;9.376;2023-01-05T08:42:00;99152.19;;;14.36;84.97
13312;BME280;34033;48.672;9.376;2023-01-05T08:44:25;99154.69;;;15.01;80.60
13312;BME280;34033;48.672;9.376;2023-01-05T08:46:50;99157.91;;;15.07;78.49
13312;BME280;34033;48.672;9.376;2023-01-05T08:49:16;99170.78;;;14.90;77.41
13312;BME280;34033;48.672;9.376;2023-01-05T08:51:41;99172.78;;;14.68;77.53
13312;BME280;34033;48.672;9.376;2023-01-05T08:54:06;99169.13;;;14.43;77.85
13312;BME280;34033;48.672;9.376;2023-01-05T08:56:32;99173.84;;;14.10;78.75
13312;BME280;34033;48.672;9.376;2023-01-05T08:58:57;99176.09;;;13.80;79.97
13312;BME280;34033;48.672;9.376;2023-01-05T09:01:23;99179.09;;;13.40;83.01
13312;BME280;34033;48.672;9.376;2023-01-05T09:03:49;99172.56;;;13.25;83.37
13312;BME280;34033;48.672;9.376;2023-01-05T09:06:15;99186.88;;;13.09;85.27
13312;BME280;34033;48.672;9.376;2023-01-05T09:08:41;99184.41;;;13.04;85.95
13312;BME280;34033;48.672;9.376;2023-01-05T09:13:37;99189.78;;;12.76;85.05
13312;BME280;34033;48.672;9.376;2023-01-05T09:16:11;99198.28;;;12.42;81.92
13312;BME280;34033;48.672;9.376;2023-01-05T09:18:38;99204.13;;;12.30;80.81
13312;BME280;34033;48.672;9.376;2023-01-05T09:21:04;99209.25;;;12.21;81.00
13312;BME280;34033;48.672;9.376;2023-01-05T09:23:30;99222.25;;;12.03;77.08
13312;BME280;34033;48.672;9.376;2023-01-05T09:25:56;99224.19;;;11.99;78.04
13312;BME280;34033;48.672;9.376;2023-01-05T09:28:21;99232.38;;;11.81;76.59
13312;BME280;34033;48.672;9.376;2023-01-05T09:30:46;99235.28;;;11.88;76.53
13312;BME280;34033;48.672;9.376;2023-01-05T09:33:12;99231.16;;;11.79;76.24
13312;BME280;34033;48.672;9.376;2023-01-05T09:35:37;99248.00;;;11.82;75.84
13312;BME280;34033;48.672;9.376;2023-01-05T09:38:02;99244.56;;;11.69;75.08
13312;BME280;34033;48.672;9.376;2023-01-05T09:40:30;99243.75;;;11.69;74.57
13312;BME280;34033;48.672;9.376;2023-01-05T09:42:59;99247.38;;;11.69;75.81
13312;BME280;34033;48.672;9.376;2023-01-05T09:45:26;99243.97;;;11.80;74.92
13312;BME280;34033;48.672;9.376;2023-01-05T09:47:54;99240.22;;;11.72;74.24
13312;BME280;34033;48.672;9.376;2023-01-05T09:50:23;99245.53;;;11.77;73.75
13312;BME280;34033;48.672;9.376;2023-01-05T09:52:52;99244.38;;;11.82;74.01
13312;BME280;34033;48.672;9.376;2023-01-05T09:55:19;99246.81;;;11.83;72.63
13312;BME280;34033;48.672;9.376;2023-01-05T09:58:00;99246.44;;;11.85;72.84
13312;BME280;34033;48.672;9.376;2023-01-05T10:00:29;99247.19;;;11.82;71.47
13312;BME280;34033;48.672;9.376;2023-01-05T10:03:00;99247.19;;;11.82;71.83
13312;BME280;34033;48.672;9.376;2023-01-05T10:05:28;99243.34;;;11.93;75.85
13312;BME280;34033;48.672;9.376;2023-01-05T10:08:03;99250.25;;;12.70;79.29
13312;BME280;34033;48.672;9.376;2023-01-05T10:10:50;99254.13;;;12.95;70.63
13312;BME280;34033;48.672;9.376;2023-01-05T10:14:23;99246.53;;;13.43;73.72
13312;BME280;34033;48.672;9.376;2023-01-05T10:16:43;99247.50;;;13.68;66.47
13312;BME280;34033;48.672;9.376;2023-01-05T10:19:16;99244.91;;;13.42;65.37
13312;BME280;34033;48.672;9.376;2023-01-05T10:22:09;99250.38;;;13.21;66.46
13312;BME280;34033;48.672;9.376;2023-01-05T10:24:56;99246.09;;;12.93;66.07
13312;BME280;34033;48.672;9.376;2023-01-05T10:27:48;99251.03;;;12.67;67.64
13312;BME280;34033;48.672;9.376;2023-01-05T10:33:11;99243.25;;;12.53;68.00
13312;BME280;34033;48.672;9.376;2023-01-05T10:39:00;99241.47;;;12.34;68.09
13312;BME280;34033;48.672;9.376;2023-01-05T10:41:48;99238.09;;;12.22;67.58
13312;BME280;34033;48.672;9.376;2023-01-05T10:46:52;99232.28;;;12.37;67.86
13312;BME280;34033;48.672;9.376;2023-01-05T10:49:20;99228.31;;;12.42;67.67
13312;BME280;34033;48.672;9.376;2023-01-05T10:51:49;99223.16;;;12.47;68.39
13312;BME280;34033;48.672;9.376;2023-01-05T10:54:35;99232.47;;;12.55;67.90
13312;BME280;34033;48.672;9.376;2023-01-05T11:02:34;99225.84;;;12.74;67.52
13312;BME280;34033;48.672;9.376;2023-01-05T11:07:50;99218.63;;;12.73;66.11
13312;BME280;34033;48.672;9.376;2023-01-05T11:10:27;99218.56;;;12.66;64.98
13312;BME280;34033;48.672;9.376;2023-01-05T11:13:01;99219.31;;;12.63;65.01
13312;BME280;34033;48.672;9.376;2023-01-05T11:15:33;99222.88;;;12.56;65.50
13312;BME280;34033;48.672;9.376;2023-01-05T11:18:03;99217.53;;;12.44;66.07
13312;BME280;34033;48.672;9.376;2023-01-05T11:20:30;99229.47;;;12.37;66.35
13312;BME280;34033;48.672;9.376;2023-01-05T11:22:56;99221.38;;;12.29;66.26
13312;BME280;34033;48.672;9.376;2023-01-05T11:25:25;99231.38;;;12.30;65.84
13312;BME280;34033;48.672;9.376;2023-01-05T11:28:15;99227.81;;;12.33;66.59
13312;BME280;34033;48.672;9.376;2023-01-05T11:31:02;99221.28;;;12.22;66.11
13312;BME280;34033;48.672;9.376;2023-01-05T11:33:30;99227.25;;;12.20;67.37
13312;BME280;34033;48.672;9.376;2023-01-05T11:35:57;99230.91;;;12.24;67.50
13312;BME280;34033;48.672;9.376;2023-01-05T11:38:26;99221.38;;;12.29;65.79
13312;BME280;34033;48.672;9.376;2023-01-05T11:40:53;99223.75;;;12.30;66.20
13312;BME280;34033;48.672;9.376;2023-01-05T11:43:22;99218.16;;;12.30;65.76
13312;BME280;34033;48.672;9.376;2023-01-05T11:45:51;99211.72;;;12.26;65.86
13312;BME280;34033;48.672;9.376;2023-01-05T11:48:29;99207.34;;;12.29;66.10
13312;BME280;34033;48.672;9.376;2023-01-05T11:50:56;99212.25;;;12.39;67.19
13312;BME280;34033;48.672;9.376;2023-01-05T11:55:58;99215.59;;;12.51;66.05
13312;BME280;34033;48.672;9.376;2023-01-05T11:58:27;99210.06;;;12.59;65.75
13312;BME280;34033;48.672;9.376;2023-01-05T12:15:43;99204.03;;;12.57;64.27
13312;BME280;34033;48.672;9.376;2023-01-05T12:18:27;99207.59;;;12.50;63.54
13312;BME280;34033;48.672;9.376;2023-01-05T12:20:56;99206.34;;;12.47;63.29
13312;BME280;34033;48.672;9.376;2023-01-05T12:29:48;99210.38;;;12.50;62.35
13312;BME280;34033;48.672;9.376;2023-01-05T12:35:19;99217.72;;;12.62;62.21
13312;BME280;34033;48.672;9.376;2023-01-05T12:43:19;99229.91;;;12.80;62.30
13312;BME280;34033;48.672;9.376;2023-01-05T12:48:22;99216.19;;;12.71;61.90
13312;BME280;34033;48.672;9.376;2023-01-05T12:55:58;99236.09;;;12.56;62.16
13312;BME280;34033;48.672;9.376;2023-01-05T12:58:31;99236.50;;;12.58;62.38
13312;BME280;34033;48.672;9.376;2023-01-05T13:00:58;99239.66;;;12.52;63.57
13312;BME280;34033;48.672;9.376;2023-01-05T13:06:09;99232.69;;;12.39;63.76
13312;BME280;34033;48.672;9.376;2023-01-05T13:08:40;99243.81;;;12.32;63.59
13312;BME280;34033;48.672;9.376;2023-01-05T13:14:03;99240.59;;;12.30;64.66
13312;BME280;34033;48.672;9.376;2023-01-05T13:16:47;99251.06;;;12.33;65.01
13312;BME280;34033;48.672;9.376;2023-01-05T13:19:27;99247.09;;;12.38;65.35
13312;BME280;34033;48.672;9.376;2023-01-05T13:21:56;99246.25;;;12.34;64.77
13312;BME280;34033;48.672;9.376;2023-01-05T13:24:32;99248.19;;;12.30;65.04
13312;BME280;34033;48.672;9.376;2023-01-05T13:27:00;99247.31;;;12.22;64.19
13312;BME280;34033;48.672;9.376;2023-01-05T13:29:30;99248.06;;;12.19;64.34
13312;BME280;34033;48.672;9.376;2023-01-05T13:51:43;99247.22;;;12.15;66.96
13312;BME280;34033;48.672;9.376;2023-01-05T13:54:16;99243.69;;;12.18;66.75
13312;BME280;34033;48.672;9.376;2023-01-05T13:56:44;99239.28;;;12.21;66.52
13312;BME280;34033;48.672;9.376;2023-01-05T13:59:23;99235.25;;;12.18;67.09
13312;BME280;34033;48.672;9.376;2023-01-05T14:01:50;99238.91;;;12.22;66.44
13312;BME280;34033;48.672;9.376;2023-01-05T14:04:22;99241.34;;;12.24;67.61
13312;BME280;34033;48.672;9.376;2023-01-05T14:06:51;99238.84;;;12.19;66.43
13312;BME280;34033;48.672;9.376;2023-01-05T14:09:34;99243.22;;;12.16;66.75
13312;BME280;34033;48.672;9.376;2023-01-05T14:12:23;99238.47;;;12.20;67.67
13312;BME280;34033;48.672;9.376;2023-01-05T14:22:56;99254.66;;;12.00;67.48
13312;BME280;34033;48.672;9.376;2023-01-05T14:30:40;99271.25;;;11.86;68.32
13312;BME280;34033;48.672;9.376;2023-01-05T14:33:08;99270.06;;;11.87;67.91
13312;BME280;34033;48.672;9.376;2023-01-05T14:35:34;99266.13;;;11.92;67.94
13312;BME280;34033;48.672;9.376;2023-01-05T14:40:45;99276.19;;;11.96;68.50
13312;BME280;34033;48.672;9.376;2023-01-05T14:43:28;99279.47;;;12.02;68.64
13312;BME280;34033;48.672;9.376;2023-01-05T14:46:10;99280.75;;;12.08;68.73
13312;BME280;34033;48.672;9.376;2023-01-05T14:48:41;99278.72;;;12.05;67.53
13312;BME280;34033;48.672;9.376;2023-01-05T14:53:44;99285.19;;;12.42;68.25
13312;BME280;34033;48.672;9.376;2023-01-05T15:01:18;99291.13;;;12.34;65.26
13312;BME280;34033;48.672;9.376;2023-01-05T15:33:49;99287.13;;;12.05;67.21
13312;BME280;34033;48.672;9.376;2023-01-05T15:36:29;99289.50;;;12.03;67.86
13312;BME280;34033;48.672;9.376;2023-01-05T15:38:55;99295.56;;;12.08;68.46
13312;BME280;34033;48.672;9.376;2023-01-05T15:41:22;99282.59;;;11.97;67.51
13312;BME280;34033;48.672;9.376;2023-01-05T15:43:49;99286.22;;;11.97;68.13
13312;BME280;34033;48.672;9.376;2023-01-05T15:46:20;99284.66;;;12.00;68.49
13312;BME280;34033;48.672;9.376;2023-01-05T15:48:49;99279.81;;;11.97;68.29
13312;BME280;34033;48.672;9.376;2023-01-05T15:51:27;99282.72;;;12.04;68.81
13312;BME280;34033;48.672;9.376;2023-01-05T15:54:03;99283.03;;;11.99;68.63
13312;BME280;34033;48.672;9.376;2023-01-05T15:56:39;99282.75;;;12.07;68.83